Time;durP1;ratioP1;P1;durP2;ratioP2;P2;SDS_P1;SDS_P2;PMS_P1;PMS_P2;Temp;Humidity;BMP_temperature;BMP_pressure;BME280_temperature;BME280_humidity;BME280_pressure;Samples;Min_cycle;Max_cycle;Signal;HPM_P1;HPM_P2
2022/02/12 00:02:07;;;;;;;188.15;57.83;;;;;;;;;;5099045;28;20206;-74
2022/02/12 00:04:35;;;;;;;130.10;50.55;;;;;;;;;;5098653;28;20275;-74
2022/02/12 00:07:07;;;;;;;121.82;47.60;;;;;;;;;;5098525;28;20193;-73
2022/02/12 00:09:37;;;;;;;125.75;49.08;;;;;;;;;;5098284;28;20306;-73
2022/02/12 00:12:05;;;;;;;137.95;54.38;;;;;;;;;;5098247;28;20209;-74
2022/02/12 00:14:33;;;;;;;136.90;48.97;;;;;;;;;;5097792;28;20270;-74
2022/02/12 00:17:01;;;;;;;151.03;53.63;;;;;;;;;;5097476;28;20320;-74
2022/02/12 00:19:29;;;;;;;138.20;53.65;;;;;;;;;;5097544;28;20516;-74
2022/02/12 00:22:04;;;;;;;140.90;51.25;;;;;;;;;;5097416;28;20518;-74
2022/02/12 00:24:33;;;;;;;140.48;52.25;;;;;;;;;;5097403;28;20236;-74
2022/02/12 00:27:03;;;;;;;151.57;54.13;;;;;;;;;;5097085;28;20636;-74
2022/02/12 00:29:37;;;;;;;148.70;53.22;;;;;;;;;;5097281;28;20206;-74
2022/02/12 00:32:08;;;;;;;165.10;55.58;;;;;;;;;;5097961;28;20206;-74
2022/02/12 00:34:41;;;;;;;154.32;54.40;;;;;;;;;;5097367;28;20673;-74
2022/02/12 00:37:09;;;;;;;169.02;55.15;;;;;;;;;;5097799;28;20494;-74
2022/02/12 00:39:39;;;;;;;154.70;53.55;;;;;;;;;;5089549;28;20199;-75
2022/02/12 00:42:09;;;;;;;158.63;56.15;;;;;;;;;;5077099;28;20206;-74
2022/02/12 00:44:37;;;;;;;147.15;52.25;;;;;;;;;;5077495;28;20604;-74
2022/02/12 00:47:08;;;;;;;141.88;52.95;;;;;;;;;;5077313;28;20194;-74
2022/02/12 00:49:36;;;;;;;142.32;52.03;;;;;;;;;;5077093;28;20251;-74
2022/02/12 00:52:04;;;;;;;171.85;55.38;;;;;;;;;;5076520;28;20285;-74
2022/02/12 00:54:32;;;;;;;170.23;60.80;;;;;;;;;;5076755;28;20217;-74
2022/02/12 00:57:02;;;;;;;165.38;53.60;;;;;;;;;;5077266;28;20237;-75
2022/02/12 00:59:29;;;;;;;168.00;57.72;;;;;;;;;;5076615;28;20210;-75
2022/02/12 01:01:57;;;;;;;193.80;56.92;;;;;;;;;;5077091;28;20210;-74
2022/02/12 01:04:24;;;;;;;164.88;55.83;;;;;;;;;;5076446;28;20206;-75
2022/02/12 01:06:52;;;;;;;164.07;54.08;;;;;;;;;;5075421;28;20222;-75
2022/02/12 01:09:20;;;;;;;170.43;54.60;;;;;;;;;;5075847;28;20279;-75
2022/02/12 01:11:48;;;;;;;160.23;53.47;;;;;;;;;;5076547;28;20194;-75
2022/02/12 01:14:20;;;;;;;198.07;60.30;;;;;;;;;;5076517;28;20220;-75
2022/02/12 01:16:53;;;;;;;190.00;55.97;;;;;;;;;;5076581;28;20317;-74
2022/02/12 01:19:21;;;;;;;160.23;53.08;;;;;;;;;;5076127;28;20214;-75
2022/02/12 01:21:49;;;;;;;208.82;60.63;;;;;;;;;;5075678;28;20206;-75
2022/02/12 01:24:17;;;;;;;180.77;58.00;;;;;;;;;;5076939;28;20210;-75
2022/02/12 01:26:45;;;;;;;196.55;60.55;;;;;;;;;;5076389;28;20587;-75
2022/02/12 01:29:12;;;;;;;211.50;58.83;;;;;;;;;;5075744;28;20222;-74
2022/02/12 01:31:42;;;;;;;271.33;68.78;;;;;;;;;;5075402;28;20206;-75
2022/02/12 01:34:09;;;;;;;270.80;75.88;;;;;;;;;;5076278;28;20486;-74
2022/02/12 01:36:37;;;;;;;148.90;51.38;;;;;;;;;;5076321;28;20251;-74
2022/02/12 01:39:06;;;;;;;155.55;53.80;;;;;;;;;;5076257;28;20206;-74
2022/02/12 01:41:34;;;;;;;185.05;56.50;;;;;;;;;;5076064;28;20281;-74
2022/02/12 01:44:08;;;;;;;209.80;57.22;;;;;;;;;;5076566;28;20555;-74
2022/02/12 01:46:36;;;;;;;178.23;54.05;;;;;;;;;;5076051;28;20296;-74
2022/02/12 01:49:05;;;;;;;221.90;62.70;;;;;;;;;;5076249;28;20225;-74
2022/02/12 01:51:38;;;;;;;225.27;64.63;;;;;;;;;;5076845;28;20207;-74
2022/02/12 01:54:06;;;;;;;217.65;61.33;;;;;;;;;;5076029;28;20214;-74
2022/02/12 01:56:33;;;;;;;185.55;56.40;;;;;;;;;;5076084;28;20697;-74
2022/02/12 01:59:01;;;;;;;226.48;61.17;;;;;;;;;;5076379;28;20206;-74
2022/02/12 02:01:29;;;;;;;265.17;67.75;;;;;;;;;;5076536;28;20202;-74
2022/02/12 02:03:59;;;;;;;239.52;62.38;;;;;;;;;;5075587;28;20455;-74
2022/02/12 02:06:29;;;;;;;207.18;58.30;;;;;;;;;;5076095;28;20263;-74
2022/02/12 02:08:57;;;;;;;223.48;67.25;;;;;;;;;;5075739;28;20237;-74
2022/02/12 02:11:25;;;;;;;233.07;64.32;;;;;;;;;;5075030;28;20206;-73
2022/02/12 02:13:53;;;;;;;263.10;69.00;;;;;;;;;;5075352;28;20210;-74
2022/02/12 02:16:21;;;;;;;223.60;59.95;;;;;;;;;;5075806;28;20237;-73
2022/02/12 02:18:50;;;;;;;249.35;63.10;;;;;;;;;;5075411;28;20215;-73
2022/02/12 02:21:21;;;;;;;227.88;68.22;;;;;;;;;;5075692;28;20358;-73
2022/02/12 02:23:50;;;;;;;220.80;59.47;;;;;;;;;;5074877;28;20567;-73
2022/02/12 02:26:19;;;;;;;235.85;63.35;;;;;;;;;;5075091;28;20336;-73
2022/02/12 02:28:48;;;;;;;219.60;60.40;;;;;;;;;;5076633;28;20530;-73
2022/02/12 02:31:18;;;;;;;203.98;58.22;;;;;;;;;;5076140;28;20206;-73
2022/02/12 02:34:00;;;;;;;198.43;56.92;;;;;;;;;;5076069;28;20296;-73
2022/02/12 02:36:28;;;;;;;198.50;57.50;;;;;;;;;;5073716;28;20534;-73
2022/02/12 02:38:57;;;;;;;221.55;59.60;;;;;;;;;;5074870;28;20210;-73
2022/02/12 02:41:28;;;;;;;241.18;64.65;;;;;;;;;;5075022;28;20610;-73
2022/02/12 02:43:56;;;;;;;230.70;62.85;;;;;;;;;;5075155;28;20206;-73
2022/02/12 02:46:23;;;;;;;238.75;63.00;;;;;;;;;;5076210;28;20598;-73
2022/02/12 02:48:51;;;;;;;261.85;67.63;;;;;;;;;;5078922;28;20206;-73
2022/02/12 02:56:50;;;;;;;208.40;61.83;;;;;;;;;;5078823;28;20688;-73
2022/02/12 02:59:18;;;;;;;217.50;60.47;;;;;;;;;;5079588;28;20203;-73
2022/02/12 03:01:52;;;;;;;179.02;56.00;;;;;;;;;;5079207;28;20198;-73
2022/02/12 03:04:20;;;;;;;189.75;58.05;;;;;;;;;;5078697;28;20259;-73
2022/02/12 03:06:48;;;;;;;224.73;65.43;;;;;;;;;;5077929;28;20202;-73
2022/02/12 03:09:17;;;;;;;213.90;60.65;;;;;;;;;;5077479;28;20241;-73
2022/02/12 03:11:46;;;;;;;199.40;59.00;;;;;;;;;;5077188;28;20233;-73
2022/02/12 03:14:14;;;;;;;203.93;59.65;;;;;;;;;;5078152;28;20206;-73
2022/02/12 03:16:42;;;;;;;225.95;63.65;;;;;;;;;;5077422;28;20226;-73
2022/02/12 03:19:13;;;;;;;212.80;61.15;;;;;;;;;;5078569;28;20214;-73
2022/02/12 03:21:41;;;;;;;191.35;56.33;;;;;;;;;;5078808;28;20587;-73
2022/02/12 03:24:12;;;;;;;223.10;72.63;;;;;;;;;;5079376;28;20217;-73
2022/02/12 03:26:41;;;;;;;207.45;60.35;;;;;;;;;;5097338;28;20201;-73
2022/02/12 03:29:09;;;;;;;209.90;60.30;;;;;;;;;;5097839;28;20209;-73
2022/02/12 03:31:37;;;;;;;203.68;60.38;;;;;;;;;;5094206;28;20212;-73
2022/02/12 03:34:05;;;;;;;213.20;62.10;;;;;;;;;;5098984;28;20217;-73
2022/02/12 03:36:36;;;;;;;220.55;63.22;;;;;;;;;;5096554;28;20235;-74
2022/02/12 03:39:07;;;;;;;180.73;56.10;;;;;;;;;;5097657;28;20304;-73
2022/02/12 03:41:35;;;;;;;173.30;55.40;;;;;;;;;;5098587;28;20205;-73
2022/02/12 03:44:04;;;;;;;195.35;60.13;;;;;;;;;;5098550;28;20214;-73
2022/02/12 03:46:35;;;;;;;242.80;66.88;;;;;;;;;;5099131;28;20296;-73
2022/02/12 03:49:02;;;;;;;248.18;65.53;;;;;;;;;;5098880;28;20559;-73
2022/02/12 03:51:30;;;;;;;255.20;67.93;;;;;;;;;;5098260;28;20216;-73
2022/02/12 03:53:58;;;;;;;212.23;60.30;;;;;;;;;;5097347;28;20206;-73
2022/02/12 03:56:26;;;;;;;217.13;63.85;;;;;;;;;;5097152;28;20217;-73
2022/02/12 03:58:53;;;;;;;233.05;62.15;;;;;;;;;;5098400;28;20339;-73
2022/02/12 04:01:23;;;;;;;221.07;62.63;;;;;;;;;;5099137;28;20605;-74
2022/02/12 04:03:52;;;;;;;237.05;65.05;;;;;;;;;;5098729;28;20213;-73
2022/02/12 04:06:23;;;;;;;226.73;66.10;;;;;;;;;;5097430;28;20587;-73
2022/02/12 04:08:50;;;;;;;225.23;61.20;;;;;;;;;;5098461;28;20212;-73
2022/02/12 04:11:20;;;;;;;231.65;68.75;;;;;;;;;;5097103;28;20220;-73
2022/02/12 04:13:48;;;;;;;234.75;65.57;;;;;;;;;;5098414;28;20574;-73
2022/02/12 04:16:16;;;;;;;230.27;64.88;;;;;;;;;;5097652;28;20252;-73
2022/02/12 04:18:46;;;;;;;248.63;67.72;;;;;;;;;;5098125;28;20257;-73
2022/02/12 04:21:13;;;;;;;249.07;63.97;;;;;;;;;;5098177;28;20205;-73
2022/02/12 04:23:41;;;;;;;229.70;63.13;;;;;;;;;;5098184;28;20218;-73
2022/02/12 04:26:09;;;;;;;229.90;63.55;;;;;;;;;;5098317;28;20206;-73
2022/02/12 04:28:37;;;;;;;254.18;69.43;;;;;;;;;;5097932;28;20312;-73
2022/02/12 04:31:06;;;;;;;233.13;63.63;;;;;;;;;;5098260;28;20589;-73
2022/02/12 04:33:34;;;;;;;245.05;64.22;;;;;;;;;;5098232;28;20260;-73
2022/02/12 04:36:03;;;;;;;254.75;69.07;;;;;;;;;;5096334;28;20205;-73
2022/02/12 04:38:31;;;;;;;239.25;67.25;;;;;;;;;;5096234;28;20383;-74
2022/02/12 04:41:00;;;;;;;240.70;63.90;;;;;;;;;;5099201;28;20311;-73
2022/02/12 04:43:28;;;;;;;233.18;62.40;;;;;;;;;;5098025;28;20201;-73
2022/02/12 04:45:56;;;;;;;222.02;60.78;;;;;;;;;;5097486;28;20223;-73
2022/02/12 04:48:24;;;;;;;227.70;65.82;;;;;;;;;;5097415;28;20259;-73
2022/02/12 04:50:51;;;;;;;239.77;69.47;;;;;;;;;;5097328;28;20316;-74
2022/02/12 04:53:24;;;;;;;203.20;59.53;;;;;;;;;;5097451;28;20213;-73
2022/02/12 04:55:55;;;;;;;197.98;60.50;;;;;;;;;;5097589;28;20206;-73
2022/02/12 04:58:23;;;;;;;184.00;60.13;;;;;;;;;;5096954;28;20295;-73
2022/02/12 05:00:50;;;;;;;189.73;59.75;;;;;;;;;;5097247;28;20209;-74
2022/02/12 05:03:18;;;;;;;198.30;61.03;;;;;;;;;;5097637;28;20494;-73
2022/02/12 05:05:46;;;;;;;200.65;58.45;;;;;;;;;;5097557;28;20336;-73
2022/02/12 05:08:14;;;;;;;198.13;62.97;;;;;;;;;;5097739;28;20205;-73
2022/02/12 05:10:43;;;;;;;207.05;59.78;;;;;;;;;;5096193;28;20514;-73
2022/02/12 05:13:11;;;;;;;215.90;62.03;;;;;;;;;;5097173;28;20205;-74
2022/02/12 05:15:38;;;;;;;246.80;70.20;;;;;;;;;;5097134;28;20585;-74
2022/02/12 05:18:06;;;;;;;260.80;66.32;;;;;;;;;;5096637;28;20229;-74
2022/02/12 05:20:34;;;;;;;252.90;68.15;;;;;;;;;;5097277;28;20655;-73
2022/02/12 05:23:01;;;;;;;250.15;64.30;;;;;;;;;;5096448;28;20206;-73
2022/02/12 05:25:29;;;;;;;280.65;70.50;;;;;;;;;;5097236;28;20493;-73
2022/02/12 05:27:58;;;;;;;255.27;66.60;;;;;;;;;;5096964;28;20212;-74
2022/02/12 05:30:26;;;;;;;275.40;70.07;;;;;;;;;;5096594;28;20544;-73
2022/02/12 05:32:54;;;;;;;211.38;61.60;;;;;;;;;;5096612;28;20604;-73
2022/02/12 05:35:24;;;;;;;212.25;65.43;;;;;;;;;;5096809;28;20212;-73
2022/02/12 05:37:52;;;;;;;212.43;62.90;;;;;;;;;;5095940;28;20605;-73
2022/02/12 05:40:23;;;;;;;221.10;61.38;;;;;;;;;;5096253;28;20205;-73
2022/02/12 05:42:51;;;;;;;215.55;60.72;;;;;;;;;;5096639;28;20220;-73
2022/02/12 05:45:20;;;;;;;228.95;65.43;;;;;;;;;;5096257;28;20205;-73
2022/02/12 05:47:48;;;;;;;226.35;67.25;;;;;;;;;;5096852;28;20231;-73
2022/02/12 05:50:16;;;;;;;249.30;63.67;;;;;;;;;;5096625;28;20256;-73
2022/02/12 05:52:44;;;;;;;227.82;66.78;;;;;;;;;;5095904;28;20271;-73
2022/02/12 05:55:11;;;;;;;214.68;60.13;;;;;;;;;;5097059;28;20205;-73
2022/02/12 05:57:39;;;;;;;223.15;66.45;;;;;;;;;;5096481;28;20617;-73
2022/02/12 06:00:07;;;;;;;209.13;58.90;;;;;;;;;;5096593;28;20212;-73
2022/02/12 06:02:37;;;;;;;212.85;60.00;;;;;;;;;;5096417;28;20209;-73
2022/02/12 06:05:04;;;;;;;225.00;64.93;;;;;;;;;;5096372;28;20214;-73
2022/02/12 06:07:32;;;;;;;213.68;59.05;;;;;;;;;;5096714;28;20206;-74
2022/02/12 06:10:00;;;;;;;217.65;62.33;;;;;;;;;;5097094;28;20531;-73
2022/02/12 06:12:28;;;;;;;226.68;62.03;;;;;;;;;;5095129;28;20309;-73
2022/02/12 06:14:56;;;;;;;235.57;64.82;;;;;;;;;;5093736;28;20252;-73
2022/02/12 06:17:26;;;;;;;214.07;60.92;;;;;;;;;;5096433;28;20567;-74
2022/02/12 06:19:56;;;;;;;237.02;67.90;;;;;;;;;;5095841;28;20217;-73
2022/02/12 06:22:26;;;;;;;200.55;62.33;;;;;;;;;;5095345;28;20267;-73
2022/02/12 06:24:55;;;;;;;194.32;57.05;;;;;;;;;;5096632;28;20213;-73
2022/02/12 06:27:22;;;;;;;215.40;64.32;;;;;;;;;;5096479;28;20213;-73
2022/02/12 06:29:50;;;;;;;231.98;62.30;;;;;;;;;;5096446;28;20202;-73
2022/02/12 06:32:18;;;;;;;245.70;65.00;;;;;;;;;;5096179;28;20205;-73
2022/02/12 06:34:51;;;;;;;240.57;62.85;;;;;;;;;;5096449;28;20212;-73
2022/02/12 06:37:23;;;;;;;251.82;64.65;;;;;;;;;;5096101;28;20225;-73
2022/02/12 06:39:51;;;;;;;258.10;63.78;;;;;;;;;;5096514;28;20270;-73
2022/02/12 06:42:19;;;;;;;247.88;64.20;;;;;;;;;;5095322;28;20278;-73
2022/02/12 06:44:46;;;;;;;278.65;67.00;;;;;;;;;;5096474;28;20459;-73
2022/02/12 06:47:15;;;;;;;267.08;64.57;;;;;;;;;;5101345;28;20197;-73
2022/02/12 06:49:42;;;;;;;286.30;69.97;;;;;;;;;;5106110;28;20202;-73
2022/02/12 06:52:13;;;;;;;288.70;71.88;;;;;;;;;;5095323;28;20202;-73
2022/02/12 06:54:43;;;;;;;283.45;70.22;;;;;;;;;;5095866;28;20573;-73
2022/02/12 06:57:13;;;;;;;275.83;69.85;;;;;;;;;;5095548;28;20221;-73
2022/02/12 06:59:43;;;;;;;303.08;68.80;;;;;;;;;;5095983;28;20202;-72
2022/02/12 07:02:11;;;;;;;302.90;71.45;;;;;;;;;;5096302;28;20213;-73
2022/02/12 07:04:41;;;;;;;288.45;71.53;;;;;;;;;;5096240;28;20213;-74
2022/02/12 07:07:09;;;;;;;285.65;67.10;;;;;;;;;;5096278;28;20708;-72
2022/02/12 07:09:37;;;;;;;295.73;68.75;;;;;;;;;;5096382;28;20206;-73
2022/02/12 07:12:07;;;;;;;291.42;71.22;;;;;;;;;;5095422;28;20205;-73
2022/02/12 07:14:34;;;;;;;290.95;68.40;;;;;;;;;;5096098;28;20213;-72
2022/02/12 07:17:03;;;;;;;292.67;69.10;;;;;;;;;;5095424;28;20248;-72
2022/02/12 07:19:32;;;;;;;293.05;70.57;;;;;;;;;;5096826;28;20221;-73
2022/02/12 07:22:00;;;;;;;306.77;71.85;;;;;;;;;;5108416;28;20194;-73
2022/02/12 07:24:28;;;;;;;299.58;71.32;;;;;;;;;;5077892;28;20206;-73
2022/02/12 07:26:56;;;;;;;302.30;70.40;;;;;;;;;;5075745;28;20206;-73
2022/02/12 07:29:25;;;;;;;296.23;71.63;;;;;;;;;;5074996;28;20214;-72
2022/02/12 07:31:52;;;;;;;306.00;73.13;;;;;;;;;;5075499;28;20229;-73
2022/02/12 07:34:21;;;;;;;309.85;76.90;;;;;;;;;;5078415;28;20245;-73
2022/02/12 07:36:48;;;;;;;297.13;70.65;;;;;;;;;;5079071;28;20276;-73
2022/02/12 07:39:19;;;;;;;297.17;74.72;;;;;;;;;;5077700;28;20487;-73
2022/02/12 07:41:47;;;;;;;298.10;69.22;;;;;;;;;;5078798;28;20210;-73
2022/02/12 07:44:15;;;;;;;294.42;72.35;;;;;;;;;;5078366;28;20206;-73
2022/02/12 07:46:44;;;;;;;296.83;70.90;;;;;;;;;;5084962;28;20206;-73
2022/02/12 07:49:12;;;;;;;295.92;73.70;;;;;;;;;;5098980;28;20296;-74
2022/02/12 07:51:40;;;;;;;287.95;70.72;;;;;;;;;;5097767;28;20213;-74
2022/02/12 07:54:08;;;;;;;297.35;71.70;;;;;;;;;;5098418;28;20210;-74
2022/02/12 07:56:35;;;;;;;286.30;68.63;;;;;;;;;;5104111;28;20570;-74
2022/02/12 07:59:03;;;;;;;293.70;69.28;;;;;;;;;;5098230;28;20226;-74
2022/02/12 08:01:31;;;;;;;297.13;72.80;;;;;;;;;;5097392;28;20201;-74
2022/02/12 08:04:05;;;;;;;312.00;70.80;;;;;;;;;;5099085;28;20481;-74
2022/02/12 08:09:31;;;;;;;302.35;76.43;;;;;;;;;;5077878;28;20446;-74
2022/02/12 08:15:04;;;;;;;309.55;80.35;;;;;;;;;;5101842;28;20240;-73
2022/02/12 08:17:59;;;;;;;301.17;73.03;;;;;;;;;;5109746;27;20271;-74
2022/02/12 08:20:36;;;;;;;301.92;73.13;;;;;;;;;;5122475;27;20478;-73
2022/02/12 08:23:17;;;;;;;298.35;71.78;;;;;;;;;;5121905;27;20558;-73
2022/02/12 08:30:06;;;;;;;291.80;72.60;;;;;;;;;;5119042;28;20216;-72
2022/02/12 08:32:54;;;;;;;306.08;74.60;;;;;;;;;;5100453;28;20219;-72
2022/02/12 08:35:35;;;;;;;299.58;74.25;;;;;;;;;;5102534;28;20205;-71
2022/02/12 08:38:15;;;;;;;300.45;73.03;;;;;;;;;;5102121;28;20225;-72
2022/02/12 08:47:11;;;;;;;305.73;77.75;;;;;;;;;;5098913;28;20196;-73
2022/02/12 08:53:08;;;;;;;309.95;78.75;;;;;;;;;;5027048;28;20223;-72
2022/02/12 08:55:51;;;;;;;317.30;81.82;;;;;;;;;;5120381;28;20273;-72
2022/02/12 08:58:22;;;;;;;309.17;76.13;;;;;;;;;;5120827;28;20785;-72
2022/02/12 09:00:57;;;;;;;310.02;77.80;;;;;;;;;;5099409;28;20296;-72
2022/02/12 09:03:33;;;;;;;313.77;76.10;;;;;;;;;;5108866;28;20245;-72
2022/02/12 09:17:20;;;;;;;319.88;84.28;;;;;;;;;;5137169;27;20208;-73
2022/02/12 09:19:58;;;;;;;322.05;79.85;;;;;;;;;;5116990;28;20238;-72
2022/02/12 09:28:53;;;;;;;328.15;85.65;;;;;;;;;;5055845;28;20410;-72
2022/02/12 09:31:41;;;;;;;332.10;80.28;;;;;;;;;;5136733;27;20488;-74
2022/02/12 09:40:44;;;;;;;333.17;82.55;;;;;;;;;;5135423;27;20208;-72
2022/02/12 09:43:34;;;;;;;341.52;87.97;;;;;;;;;;5138354;27;20260;-71
2022/02/12 09:52:47;;;;;;;;;;;;;;;;;;;;;
2022/02/12 09:56:04;;;;;;;337.67;88.20;;;;;;;;;;5075420;28;20702;-73
2022/02/12 09:59:00;;;;;;;330.55;89.07;;;;;;;;;;5064498;28;20220;-72
2022/02/12 10:15:58;;;;;;;333.33;95.10;;;;;;;;;;5118258;27;20327;-72
2022/02/12 10:18:40;;;;;;;337.23;88.78;;;;;;;;;;5131023;27;20220;-70
2022/02/12 10:44:20;;;;;;;338.38;84.63;;;;;;;;;;5063279;28;20212;-74
2022/02/12 10:46:50;;;;;;;340.45;85.78;;;;;;;;;;5087288;28;20297;-73
2022/02/12 10:49:21;;;;;;;313.17;83.85;;;;;;;;;;5080994;28;20252;-72
2022/02/12 10:51:53;;;;;;;299.83;84.37;;;;;;;;;;5093839;28;20458;-74
2022/02/12 10:54:21;;;;;;;330.40;106.93;;;;;;;;;;5093417;28;20458;-72
2022/02/12 10:57:00;;;;;;;325.92;86.72;;;;;;;;;;5093123;28;20232;-73
2022/02/12 10:59:36;;;;;;;324.58;93.70;;;;;;;;;;5092297;28;20213;-72
2022/02/12 11:02:10;;;;;;;337.23;93.55;;;;;;;;;;5093144;28;20212;-74
2022/02/12 11:05:00;;;;;;;323.58;90.93;;;;;;;;;;5086818;28;20198;-74
2022/02/12 11:07:34;;;;;;;332.00;91.20;;;;;;;;;;5082843;28;20224;-74
2022/02/12 11:10:03;;;;;;;331.90;90.63;;;;;;;;;;5083763;28;20622;-74
2022/02/12 11:12:40;;;;;;;295.87;86.47;;;;;;;;;;5092560;28;20537;-73
2022/02/12 11:15:14;;;;;;;319.67;86.60;;;;;;;;;;5086890;28;20468;-74
2022/02/12 11:17:53;;;;;;;347.02;98.55;;;;;;;;;;5088905;28;20215;-73
2022/02/12 11:20:36;;;;;;;344.75;96.20;;;;;;;;;;5095973;28;20662;-72
2022/02/12 11:26:29;;;;;;;337.38;93.25;;;;;;;;;;5075629;28;20206;-72
2022/02/12 11:29:01;;;;;;;337.97;92.07;;;;;;;;;;5091983;28;20208;-73
2022/02/12 11:31:37;;;;;;;353.13;99.22;;;;;;;;;;5092686;28;20796;-73
2022/02/12 11:34:17;;;;;;;318.25;94.45;;;;;;;;;;5098058;28;20237;-73
2022/02/12 11:36:48;;;;;;;327.75;91.20;;;;;;;;;;5088061;28;20624;-73
2022/02/12 11:39:39;;;;;;;332.90;97.82;;;;;;;;;;5098127;28;20229;-72
2022/02/12 11:42:17;;;;;;;343.70;98.13;;;;;;;;;;5089381;28;20197;-72
2022/02/12 11:44:50;;;;;;;330.80;95.43;;;;;;;;;;5090010;28;20208;-72
2022/02/12 11:47:30;;;;;;;344.58;89.25;;;;;;;;;;5089645;28;20540;-71
2022/02/12 11:50:19;;;;;;;339.15;90.85;;;;;;;;;;5088840;28;20239;-73
2022/02/12 11:53:01;;;;;;;339.57;83.10;;;;;;;;;;5086437;28;20206;-71
2022/02/12 11:55:42;;;;;;;341.60;90.80;;;;;;;;;;5090075;28;20463;-73
2022/02/12 11:58:26;;;;;;;339.55;89.78;;;;;;;;;;5092739;28;20282;-72
2022/02/12 12:00:59;;;;;;;345.77;90.55;;;;;;;;;;5096066;28;20224;-73
2022/02/12 12:03:28;;;;;;;336.80;89.10;;;;;;;;;;5078758;28;20521;-72
2022/02/12 12:06:14;;;;;;;342.58;88.63;;;;;;;;;;5077458;28;20393;-72
2022/02/12 12:08:56;;;;;;;343.25;97.22;;;;;;;;;;5093371;28;20511;-73
2022/02/12 12:11:30;;;;;;;345.60;93.32;;;;;;;;;;5094330;28;20193;-72
2022/02/12 12:14:00;;;;;;;342.52;86.25;;;;;;;;;;5095228;28;20215;-72
2022/02/12 12:16:35;;;;;;;354.50;89.07;;;;;;;;;;5094828;28;20255;-73
2022/02/12 12:19:20;;;;;;;344.27;88.38;;;;;;;;;;5095220;28;20217;-72
2022/02/12 12:24:51;;;;;;;331.25;87.60;;;;;;;;;;5069307;28;20574;-72
2022/02/12 12:27:27;;;;;;;350.87;90.03;;;;;;;;;;5096613;28;20210;-73
2022/02/12 12:32:41;;;;;;;334.70;85.33;;;;;;;;;;5092407;28;20209;-73
2022/02/12 12:35:29;;;;;;;354.40;97.27;;;;;;;;;;5094236;28;20463;-73
2022/02/12 12:38:00;;;;;;;355.17;95.85;;;;;;;;;;5097210;28;20875;-72
2022/02/12 12:40:54;;;;;;;348.83;90.82;;;;;;;;;;5096161;28;20244;-73
2022/02/12 12:46:10;;;;;;;354.30;93.20;;;;;;;;;;5098062;28;20533;-73
2022/02/12 12:48:38;;;;;;;350.90;88.25;;;;;;;;;;5084032;28;20548;-71
2022/02/12 12:51:07;;;;;;;356.27;92.38;;;;;;;;;;5075518;28;20289;-72
2022/02/12 12:56:32;;;;;;;351.75;92.90;;;;;;;;;;5094036;28;20201;-74
2022/02/12 12:59:09;;;;;;;362.27;95.60;;;;;;;;;;5089654;28;20337;-71
2022/02/12 13:02:02;;;;;;;348.58;91.78;;;;;;;;;;5089630;28;20439;-74
2022/02/12 13:04:38;;;;;;;258.23;84.03;;;;;;;;;;5090932;28;20247;-73
2022/02/12 13:07:18;;;;;;;244.07;88.10;;;;;;;;;;5095833;28;20439;-73
2022/02/12 13:10:00;;;;;;;207.20;82.20;;;;;;;;;;5088131;28;20466;-72
2022/02/12 13:12:43;;;;;;;208.83;86.00;;;;;;;;;;5089322;28;20742;-73
2022/02/12 13:15:15;;;;;;;290.77;88.93;;;;;;;;;;5094904;28;20448;-73
2022/02/12 13:17:50;;;;;;;247.63;83.80;;;;;;;;;;5088608;28;20463;-73
2022/02/12 13:20:23;;;;;;;241.37;82.90;;;;;;;;;;5094748;28;20944;-73
2022/02/12 13:23:09;;;;;;;234.07;79.50;;;;;;;;;;5091466;28;20444;-73
2022/02/12 13:26:07;;;;;;;276.90;89.37;;;;;;;;;;5090972;28;20565;-74
2022/02/12 13:28:35;;;;;;;239.43;77.73;;;;;;;;;;5084008;28;20748;-73
2022/02/12 13:31:10;;;;;;;234.83;79.70;;;;;;;;;;5083703;28;20455;-73
2022/02/12 13:33:54;;;;;;;264.77;85.97;;;;;;;;;;5087395;28;20577;-73
2022/02/12 13:36:22;;;;;;;263.30;81.90;;;;;;;;;;5089588;28;20455;-72
2022/02/12 13:38:52;;;;;;;257.57;86.93;;;;;;;;;;5085839;28;20497;-73
2022/02/12 13:41:22;;;;;;;275.37;89.70;;;;;;;;;;5092180;28;20859;-73
2022/02/12 13:43:53;;;;;;;213.47;76.07;;;;;;;;;;5088338;28;20539;-73
2022/02/12 13:46:23;;;;;;;234.30;88.30;;;;;;;;;;5089030;28;20451;-74
2022/02/12 13:48:59;;;;;;;245.87;109.73;;;;;;;;;;5094139;28;21060;-74
2022/02/12 13:51:35;;;;;;;350.92;147.35;;;;;;;;;;5092926;28;20483;-73
2022/02/12 13:57:09;;;;;;;348.43;89.63;;;;;;;;;;5087646;28;20438;-73
2022/02/12 13:59:55;;;;;;;339.30;88.47;;;;;;;;;;5091964;28;20483;-73
2022/02/12 14:02:29;;;;;;;326.55;86.30;;;;;;;;;;5086091;28;20215;-73
2022/02/12 14:05:04;;;;;;;342.45;91.30;;;;;;;;;;5092290;28;20212;-73
2022/02/12 14:08:03;;;;;;;355.98;102.65;;;;;;;;;;5084089;28;20198;-74
2022/02/12 14:10:36;;;;;;;341.27;91.77;;;;;;;;;;5092058;28;20577;-74
2022/02/12 14:13:08;;;;;;;342.25;95.80;;;;;;;;;;5096867;28;20454;-74
2022/02/12 14:15:37;;;;;;;334.05;90.38;;;;;;;;;;5094962;28;20198;-74
2022/02/12 14:18:14;;;;;;;346.83;94.77;;;;;;;;;;5092608;28;20193;-74
2022/02/12 14:20:51;;;;;;;351.23;92.90;;;;;;;;;;5087773;28;20594;-74
2022/02/12 14:23:25;;;;;;;332.30;89.77;;;;;;;;;;5092229;28;20439;-74
2022/02/12 14:25:58;;;;;;;336.30;91.23;;;;;;;;;;5092262;28;20467;-74
2022/02/12 14:28:29;;;;;;;354.20;96.50;;;;;;;;;;5091830;28;20937;-73
2022/02/12 14:30:57;;;;;;;360.42;100.35;;;;;;;;;;5089593;28;20452;-73
2022/02/12 14:33:32;;;;;;;350.87;92.03;;;;;;;;;;5087268;28;20466;-72
2022/02/12 14:36:13;;;;;;;344.92;87.15;;;;;;;;;;5092178;28;20443;-72
2022/02/12 14:38:45;;;;;;;328.45;84.43;;;;;;;;;;5096103;28;20216;-73
2022/02/12 14:41:18;;;;;;;333.00;88.63;;;;;;;;;;5090204;28;20221;-74
2022/02/12 14:44:00;;;;;;;343.38;88.40;;;;;;;;;;5097395;28;20304;-74
2022/02/12 14:46:32;;;;;;;345.85;89.38;;;;;;;;;;5097057;28;20204;-73
2022/02/12 14:49:03;;;;;;;343.83;93.85;;;;;;;;;;5099051;28;20809;-74
2022/02/12 14:51:40;;;;;;;334.00;89.75;;;;;;;;;;5097981;28;20201;-74
2022/02/12 14:54:09;;;;;;;335.30;91.07;;;;;;;;;;5099079;28;20372;-74
2022/02/12 14:56:37;;;;;;;324.00;85.30;;;;;;;;;;5095070;28;20198;-73
2022/02/12 14:59:06;;;;;;;334.38;89.15;;;;;;;;;;5096925;28;20286;-75
2022/02/12 15:01:35;;;;;;;330.48;90.65;;;;;;;;;;5097517;28;20205;-75
2022/02/12 15:04:14;;;;;;;325.52;88.78;;;;;;;;;;5097373;28;20205;-72
2022/02/12 15:06:44;;;;;;;336.23;87.78;;;;;;;;;;5097859;28;20206;-74
2022/02/12 15:09:13;;;;;;;346.47;87.83;;;;;;;;;;5097095;28;20201;-74
2022/02/12 15:11:42;;;;;;;352.27;96.35;;;;;;;;;;5096637;28;20470;-73
2022/02/12 15:14:11;;;;;;;349.73;91.78;;;;;;;;;;5098542;28;20205;-75
2022/02/12 15:19:26;;;;;;;330.02;85.57;;;;;;;;;;5089930;28;20205;-74
2022/02/12 15:21:54;;;;;;;330.50;91.00;;;;;;;;;;5097194;28;20214;-74
2022/02/12 15:24:30;;;;;;;335.55;92.03;;;;;;;;;;5096327;28;20202;-74
2022/02/12 15:27:02;;;;;;;319.63;83.85;;;;;;;;;;5096929;28;20326;-74
2022/02/12 15:29:34;;;;;;;331.20;93.18;;;;;;;;;;5095658;28;20280;-74
2022/02/12 15:32:05;;;;;;;313.10;101.93;;;;;;;;;;5094805;28;20229;-73
2022/02/12 15:34:37;;;;;;;341.23;89.90;;;;;;;;;;5095692;28;20229;-72
2022/02/12 15:37:05;;;;;;;334.63;86.75;;;;;;;;;;5096742;28;20459;-73
2022/02/12 15:39:33;;;;;;;345.23;92.60;;;;;;;;;;5096390;28;20216;-73
2022/02/12 15:42:13;;;;;;;332.35;82.80;;;;;;;;;;5097118;28;20201;-73
2022/02/12 15:44:48;;;;;;;347.20;92.60;;;;;;;;;;5096785;28;20209;-73
2022/02/12 15:47:16;;;;;;;337.85;81.82;;;;;;;;;;5095875;28;20220;-73
2022/02/12 15:49:49;;;;;;;341.23;89.22;;;;;;;;;;5107737;28;20263;-74
2022/02/12 15:52:17;;;;;;;345.02;89.80;;;;;;;;;;5097232;28;20202;-73
2022/02/12 15:54:45;;;;;;;342.42;85.93;;;;;;;;;;5096735;28;20290;-73
2022/02/12 15:57:21;;;;;;;333.23;86.30;;;;;;;;;;5096188;28;20202;-73
2022/02/12 16:00:03;;;;;;;335.55;88.35;;;;;;;;;;5095555;28;20537;-73
2022/02/12 16:02:33;;;;;;;344.10;92.82;;;;;;;;;;5093733;28;20197;-73
2022/02/12 16:05:01;;;;;;;334.25;83.40;;;;;;;;;;5095304;28;20259;-74
2022/02/12 16:07:33;;;;;;;336.90;81.28;;;;;;;;;;5095489;28;20197;-73
2022/02/12 16:10:01;;;;;;;344.52;85.03;;;;;;;;;;5095409;28;20245;-73
2022/02/12 16:12:28;;;;;;;351.17;89.75;;;;;;;;;;5094955;28;20204;-72
2022/02/12 16:15:04;;;;;;;341.95;84.18;;;;;;;;;;5095291;28;20220;-73
2022/02/12 16:17:35;;;;;;;343.10;86.88;;;;;;;;;;5094396;28;20197;-74
2022/02/12 16:20:03;;;;;;;329.85;84.97;;;;;;;;;;5095724;28;20221;-74
2022/02/12 16:22:31;;;;;;;354.50;98.00;;;;;;;;;;5106849;28;20212;-73
2022/02/12 16:25:00;;;;;;;325.17;83.97;;;;;;;;;;5094603;28;20593;-74
2022/02/12 16:27:32;;;;;;;319.98;86.18;;;;;;;;;;5094648;28;20571;-74